Terminal Aerodrome Forecast
Issued by NWS

Home | Current Version | Previous Version | Text Only | Print | Product List | Glossary On
Versions: 1 2 3 4 5 6 7 8 9 10 11 12 13 14 15 16 17 18 19 20 21 22 23 24 25 26
000
FTUS46 KLOX 202300
TAFOXR
TAF
KOXR 202330Z 2100/2124 28011KT P6SM FEW080
     FM210400 29005KT P6SM BKN015
     FM210800 VRB03KT P6SM OVC020
     FM211600 27008KT P6SM SCT020
     FM212000 27012KT P6SM SKC=

USA.gov is the U.S. government's official web portal to all federal, state and local government web resources and services.